sensor_id;sensor_type;location;lat;lon;timestamp;temperature;humidity
5009;DHT22;2523;51.058;6.922;2023-08-07T00:00:04;13.70;99.90
5009;DHT22;2523;51.058;6.922;2023-08-07T00:02:29;13.70;99.90
5009;DHT22;2523;51.058;6.922;2023-08-07T00:04:55;13.70;99.90
5009;DHT22;2523;51.058;6.922;2023-08-07T00:07:21;13.70;99.90
5009;DHT22;2523;51.058;6.922;2023-08-07T00:09:46;13.70;99.90
5009;DHT22;2523;51.058;6.922;2023-08-07T00:12:12;13.70;99.90
5009;DHT22;2523;51.058;6.922;2023-08-07T00:14:37;13.70;99.90
5009;DHT22;2523;51.058;6.922;2023-08-07T00:17:03;13.70;99.90
5009;DHT22;2523;51.058;6.922;2023-08-07T00:19:29;13.70;99.90
5009;DHT22;2523;51.058;6.922;2023-08-07T00:21:55;13.70;99.90
5009;DHT22;2523;51.058;6.922;2023-08-07T00:24:20;13.70;99.90
5009;DHT22;2523;51.058;6.922;2023-08-07T00:26:46;13.70;99.90
5009;DHT22;2523;51.058;6.922;2023-08-07T00:29:11;13.60;99.90
5009;DHT22;2523;51.058;6.922;2023-08-07T00:31:37;13.60;99.90
5009;DHT22;2523;51.058;6.922;2023-08-07T00:34:02;13.60;99.90
5009;DHT22;2523;51.058;6.922;2023-08-07T00:36:29;13.60;99.90
5009;DHT22;2523;51.058;6.922;2023-08-07T00:38:56;13.60;99.90
5009;DHT22;2523;51.058;6.922;2023-08-07T00:41:22;13.50;99.90
5009;DHT22;2523;51.058;6.922;2023-08-07T00:43:47;13.60;99.90
5009;DHT22;2523;51.058;6.922;2023-08-07T00:46:14;13.60;99.90
5009;DHT22;2523;51.058;6.922;2023-08-07T00:48:39;13.50;99.90
5009;DHT22;2523;51.058;6.922;2023-08-07T00:51:05;13.60;99.90
5009;DHT22;2523;51.058;6.922;2023-08-07T00:53:33;13.60;99.90
5009;DHT22;2523;51.058;6.922;2023-08-07T00:56:00;13.60;99.90
5009;DHT22;2523;51.058;6.922;2023-08-07T00:58:27;13.60;99.90
5009;DHT22;2523;51.058;6.922;2023-08-07T01:00:53;13.60;99.90
5009;DHT22;2523;51.058;6.922;2023-08-07T01:03:19;13.60;99.90
5009;DHT22;2523;51.058;6.922;2023-08-07T01:05:44;13.60;99.90
5009;DHT22;2523;51.058;6.922;2023-08-07T01:08:10;13.60;99.90
5009;DHT22;2523;51.058;6.922;2023-08-07T01:10:48;13.60;99.90
5009;DHT22;2523;51.058;6.922;2023-08-07T01:15:52;13.50;99.90
5009;DHT22;2523;51.058;6.922;2023-08-07T01:18:21;13.40;99.90
5009;DHT22;2523;51.058;6.922;2023-08-07T01:20:47;13.40;99.90
5009;DHT22;2523;51.058;6.922;2023-08-07T01:23:13;13.40;99.90
5009;DHT22;2523;51.058;6.922;2023-08-07T01:25:38;13.40;99.90
5009;DHT22;2523;51.058;6.922;2023-08-07T01:28:17;13.40;99.90
5009;DHT22;2523;51.058;6.922;2023-08-07T01:30:48;13.30;99.90
5009;DHT22;2523;51.058;6.922;2023-08-07T01:33:28;13.30;99.90
5009;DHT22;2523;51.058;6.922;2023-08-07T01:35:58;13.20;99.90
5009;DHT22;2523;51.058;6.922;2023-08-07T01:38:27;13.20;99.90
5009;DHT22;2523;51.058;6.922;2023-08-07T01:40:53;13.20;99.90
5009;DHT22;2523;51.058;6.922;2023-08-07T01:43:19;13.20;99.90
5009;DHT22;2523;51.058;6.922;2023-08-07T01:45:45;13.20;99.90
5009;DHT22;2523;51.058;6.922;2023-08-07T01:48:11;13.20;99.90
5009;DHT22;2523;51.058;6.922;2023-08-07T01:50:38;13.20;99.90
5009;DHT22;2523;51.058;6.922;2023-08-07T01:53:04;13.20;99.90
5009;DHT22;2523;51.058;6.922;2023-08-07T01:55:30;13.20;99.90
5009;DHT22;2523;51.058;6.922;2023-08-07T01:57:56;13.20;99.90
5009;DHT22;2523;51.058;6.922;2023-08-07T02:00:21;13.10;99.90
5009;DHT22;2523;51.058;6.922;2023-08-07T02:02:47;13.20;99.90
5009;DHT22;2523;51.058;6.922;2023-08-07T02:05:13;13.10;99.90
5009;DHT22;2523;51.058;6.922;2023-08-07T02:07:39;13.10;99.90
5009;DHT22;2523;51.058;6.922;2023-08-07T02:10:05;13.10;99.90
5009;DHT22;2523;51.058;6.922;2023-08-07T02:12:31;13.00;99.90
5009;DHT22;2523;51.058;6.922;2023-08-07T02:14:58;13.00;99.90
5009;DHT22;2523;51.058;6.922;2023-08-07T02:17:24;13.00;99.90
5009;DHT22;2523;51.058;6.922;2023-08-07T02:19:50;13.10;99.90
5009;DHT22;2523;51.058;6.922;2023-08-07T02:22:16;13.10;99.90
5009;DHT22;2523;51.058;6.922;2023-08-07T02:24:41;13.10;99.90
5009;DHT22;2523;51.058;6.922;2023-08-07T02:27:07;13.20;99.90
5009;DHT22;2523;51.058;6.922;2023-08-07T02:29:32;13.20;99.90
5009;DHT22;2523;51.058;6.922;2023-08-07T02:32:02;13.10;99.90
5009;DHT22;2523;51.058;6.922;2023-08-07T02:34:29;13.10;99.90
5009;DHT22;2523;51.058;6.922;2023-08-07T02:36:55;13.10;99.90
5009;DHT22;2523;51.058;6.922;2023-08-07T02:39:20;13.10;99.90
5009;DHT22;2523;51.058;6.922;2023-08-07T02:41:46;13.10;99.90
5009;DHT22;2523;51.058;6.922;2023-08-07T02:44:11;13.00;99.90
5009;DHT22;2523;51.058;6.922;2023-08-07T02:46:37;13.00;99.90
5009;DHT22;2523;51.058;6.922;2023-08-07T02:49:02;13.00;99.90
5009;DHT22;2523;51.058;6.922;2023-08-07T02:51:29;13.00;99.90
5009;DHT22;2523;51.058;6.922;2023-08-07T02:53:54;13.00;99.90
5009;DHT22;2523;51.058;6.922;2023-08-07T02:56:20;13.00;99.90
5009;DHT22;2523;51.058;6.922;2023-08-07T02:58:45;13.00;99.90
5009;DHT22;2523;51.058;6.922;2023-08-07T03:01:11;13.00;99.90
5009;DHT22;2523;51.058;6.922;2023-08-07T03:03:37;13.00;99.90
5009;DHT22;2523;51.058;6.922;2023-08-07T03:06:03;13.00;99.90
5009;DHT22;2523;51.058;6.922;2023-08-07T03:08:28;13.00;99.90
5009;DHT22;2523;51.058;6.922;2023-08-07T03:10:56;13.00;99.90
5009;DHT22;2523;51.058;6.922;2023-08-07T03:13:23;13.00;99.90
5009;DHT22;2523;51.058;6.922;2023-08-07T03:15:49;13.00;99.90
5009;DHT22;2523;51.058;6.922;2023-08-07T03:18:16;13.00;99.90
5009;DHT22;2523;51.058;6.922;2023-08-07T03:20:42;12.90;99.90
5009;DHT22;2523;51.058;6.922;2023-08-07T03:23:09;12.90;99.90
5009;DHT22;2523;51.058;6.922;2023-08-07T03:25:34;13.00;99.90
5009;DHT22;2523;51.058;6.922;2023-08-07T03:28:00;13.00;99.90
5009;DHT22;2523;51.058;6.922;2023-08-07T03:30:25;13.00;99.90
5009;DHT22;2523;51.058;6.922;2023-08-07T03:32:51;12.90;99.90
5009;DHT22;2523;51.058;6.922;2023-08-07T03:35:16;12.90;99.90
5009;DHT22;2523;51.058;6.922;2023-08-07T03:37:42;12.90;99.90
5009;DHT22;2523;51.058;6.922;2023-08-07T03:40:08;12.90;99.90
5009;DHT22;2523;51.058;6.922;2023-08-07T03:42:33;12.90;99.90
5009;DHT22;2523;51.058;6.922;2023-08-07T03:44:59;12.90;99.90
5009;DHT22;2523;51.058;6.922;2023-08-07T03:47:24;12.90;99.90
5009;DHT22;2523;51.058;6.922;2023-08-07T03:49:50;12.90;99.90
5009;DHT22;2523;51.058;6.922;2023-08-07T03:52:15;12.90;99.90
5009;DHT22;2523;51.058;6.922;2023-08-07T03:54:41;12.90;99.90
5009;DHT22;2523;51.058;6.922;2023-08-07T03:57:06;12.90;99.90
5009;DHT22;2523;51.058;6.922;2023-08-07T03:59:33;12.90;99.90
5009;DHT22;2523;51.058;6.922;2023-08-07T04:01:59;12.90;99.90
5009;DHT22;2523;51.058;6.922;2023-08-07T04:04:24;12.90;99.90
5009;DHT22;2523;51.058;6.922;2023-08-07T04:06:50;12.90;99.90
5009;DHT22;2523;51.058;6.922;2023-08-07T04:09:15;12.90;99.90
5009;DHT22;2523;51.058;6.922;2023-08-07T04:11:42;12.90;99.90
5009;DHT22;2523;51.058;6.922;2023-08-07T04:14:08;13.00;99.90
5009;DHT22;2523;51.058;6.922;2023-08-07T04:16:33;13.00;99.90
5009;DHT22;2523;51.058;6.922;2023-08-07T04:18:59;13.00;99.90
5009;DHT22;2523;51.058;6.922;2023-08-07T04:21:24;12.90;99.90
5009;DHT22;2523;51.058;6.922;2023-08-07T04:23:50;12.90;99.90
5009;DHT22;2523;51.058;6.922;2023-08-07T04:26:15;12.90;99.90
5009;DHT22;2523;51.058;6.922;2023-08-07T04:28:41;13.00;99.90
5009;DHT22;2523;51.058;6.922;2023-08-07T04:31:07;13.00;99.90
5009;DHT22;2523;51.058;6.922;2023-08-07T04:33:33;13.00;99.90
5009;DHT22;2523;51.058;6.922;2023-08-07T04:35:59;13.00;99.90
5009;DHT22;2523;51.058;6.922;2023-08-07T04:38:24;12.90;99.90
5009;DHT22;2523;51.058;6.922;2023-08-07T04:40:51;12.90;99.90
5009;DHT22;2523;51.058;6.922;2023-08-07T04:43:17;12.90;99.90
5009;DHT22;2523;51.058;6.922;2023-08-07T04:45:43;12.90;99.90
5009;DHT22;2523;51.058;6.922;2023-08-07T04:48:10;13.00;99.90
5009;DHT22;2523;51.058;6.922;2023-08-07T04:50:37;13.00;99.90
5009;DHT22;2523;51.058;6.922;2023-08-07T04:53:04;13.00;99.90
5009;DHT22;2523;51.058;6.922;2023-08-07T04:55:30;13.00;99.90
5009;DHT22;2523;51.058;6.922;2023-08-07T04:57:56;13.00;99.90
5009;DHT22;2523;51.058;6.922;2023-08-07T05:00:22;13.10;99.90
5009;DHT22;2523;51.058;6.922;2023-08-07T05:02:48;13.10;99.90
5009;DHT22;2523;51.058;6.922;2023-08-07T05:05:14;13.00;99.90
5009;DHT22;2523;51.058;6.922;2023-08-07T05:07:40;13.00;99.90
5009;DHT22;2523;51.058;6.922;2023-08-07T05:10:06;13.10;99.90
5009;DHT22;2523;51.058;6.922;2023-08-07T05:12:32;13.00;99.90
5009;DHT22;2523;51.058;6.922;2023-08-07T05:14:58;13.10;99.90
5009;DHT22;2523;51.058;6.922;2023-08-07T05:17:23;13.10;99.90
5009;DHT22;2523;51.058;6.922;2023-08-07T05:19:49;13.10;99.90
5009;DHT22;2523;51.058;6.922;2023-08-07T05:22:15;13.10;99.90
5009;DHT22;2523;51.058;6.922;2023-08-07T05:24:41;13.10;99.90
5009;DHT22;2523;51.058;6.922;2023-08-07T05:27:10;13.10;99.90
5009;DHT22;2523;51.058;6.922;2023-08-07T05:29:36;13.10;99.90
5009;DHT22;2523;51.058;6.922;2023-08-07T05:32:14;13.10;99.90
5009;DHT22;2523;51.058;6.922;2023-08-07T05:34:40;13.20;99.90
5009;DHT22;2523;51.058;6.922;2023-08-07T05:37:06;13.20;99.90
5009;DHT22;2523;51.058;6.922;2023-08-07T05:39:32;13.20;99.90
5009;DHT22;2523;51.058;6.922;2023-08-07T05:41:58;13.20;99.90
5009;DHT22;2523;51.058;6.922;2023-08-07T05:44:24;13.20;99.90
5009;DHT22;2523;51.058;6.922;2023-08-07T05:46:50;13.20;99.90
5009;DHT22;2523;51.058;6.922;2023-08-07T05:49:15;13.20;99.90
5009;DHT22;2523;51.058;6.922;2023-08-07T05:51:41;13.10;99.90
5009;DHT22;2523;51.058;6.922;2023-08-07T05:54:06;13.20;99.90
5009;DHT22;2523;51.058;6.922;2023-08-07T05:56:32;13.10;99.90
5009;DHT22;2523;51.058;6.922;2023-08-07T05:58:58;13.20;99.90
5009;DHT22;2523;51.058;6.922;2023-08-07T06:01:23;13.20;99.90
5009;DHT22;2523;51.058;6.922;2023-08-07T06:03:54;13.10;99.90
5009;DHT22;2523;51.058;6.922;2023-08-07T06:06:20;13.10;99.90
5009;DHT22;2523;51.058;6.922;2023-08-07T06:08:45;13.10;99.90
5009;DHT22;2523;51.058;6.922;2023-08-07T06:11:11;13.10;99.90
5009;DHT22;2523;51.058;6.922;2023-08-07T06:13:37;13.10;99.90
5009;DHT22;2523;51.058;6.922;2023-08-07T06:16:03;13.10;99.90
5009;DHT22;2523;51.058;6.922;2023-08-07T06:18:28;13.10;99.90
5009;DHT22;2523;51.058;6.922;2023-08-07T06:20:56;13.10;99.90
5009;DHT22;2523;51.058;6.922;2023-08-07T06:23:21;13.10;99.90
5009;DHT22;2523;51.058;6.922;2023-08-07T06:25:47;13.10;99.90
5009;DHT22;2523;51.058;6.922;2023-08-07T06:28:12;13.10;99.90
5009;DHT22;2523;51.058;6.922;2023-08-07T06:30:38;13.10;99.90
5009;DHT22;2523;51.058;6.922;2023-08-07T06:33:03;13.00;99.90
5009;DHT22;2523;51.058;6.922;2023-08-07T06:35:29;13.10;99.90
5009;DHT22;2523;51.058;6.922;2023-08-07T06:37:55;13.00;99.90
5009;DHT22;2523;51.058;6.922;2023-08-07T06:40:20;13.00;99.90
5009;DHT22;2523;51.058;6.922;2023-08-07T06:42:46;13.00;99.90
5009;DHT22;2523;51.058;6.922;2023-08-07T06:45:11;13.00;99.90
5009;DHT22;2523;51.058;6.922;2023-08-07T06:47:37;13.00;99.90
5009;DHT22;2523;51.058;6.922;2023-08-07T06:50:03;13.00;99.90
5009;DHT22;2523;51.058;6.922;2023-08-07T06:52:28;13.00;99.90
5009;DHT22;2523;51.058;6.922;2023-08-07T06:54:54;12.90;99.90
5009;DHT22;2523;51.058;6.922;2023-08-07T06:57:19;13.00;99.90
5009;DHT22;2523;51.058;6.922;2023-08-07T06:59:45;13.00;99.90
5009;DHT22;2523;51.058;6.922;2023-08-07T07:02:11;13.00;99.90
5009;DHT22;2523;51.058;6.922;2023-08-07T07:04:36;13.10;99.90
5009;DHT22;2523;51.058;6.922;2023-08-07T07:07:02;13.10;99.90
5009;DHT22;2523;51.058;6.922;2023-08-07T07:09:28;13.10;99.90
5009;DHT22;2523;51.058;6.922;2023-08-07T07:11:54;13.00;99.90
5009;DHT22;2523;51.058;6.922;2023-08-07T07:14:21;13.00;99.90
5009;DHT22;2523;51.058;6.922;2023-08-07T07:16:47;13.00;99.90
5009;DHT22;2523;51.058;6.922;2023-08-07T07:19:12;12.90;99.90
5009;DHT22;2523;51.058;6.922;2023-08-07T07:21:38;13.00;99.90
5009;DHT22;2523;51.058;6.922;2023-08-07T07:24:04;13.00;99.90
5009;DHT22;2523;51.058;6.922;2023-08-07T07:26:29;13.00;99.90
5009;DHT22;2523;51.058;6.922;2023-08-07T07:28:55;13.00;99.90
5009;DHT22;2523;51.058;6.922;2023-08-07T07:31:21;13.00;99.90
5009;DHT22;2523;51.058;6.922;2023-08-07T07:33:46;13.00;99.90
5009;DHT22;2523;51.058;6.922;2023-08-07T07:36:18;13.00;99.90
5009;DHT22;2523;51.058;6.922;2023-08-07T07:38:47;13.00;99.90
5009;DHT22;2523;51.058;6.922;2023-08-07T07:41:14;13.10;99.90
5009;DHT22;2523;51.058;6.922;2023-08-07T07:43:40;13.10;99.90
5009;DHT22;2523;51.058;6.922;2023-08-07T07:46:05;13.10;99.90
5009;DHT22;2523;51.058;6.922;2023-08-07T07:48:31;13.20;99.90
5009;DHT22;2523;51.058;6.922;2023-08-07T07:51:01;13.20;99.90
5009;DHT22;2523;51.058;6.922;2023-08-07T07:53:26;13.20;99.90
5009;DHT22;2523;51.058;6.922;2023-08-07T07:55:52;13.20;99.90
5009;DHT22;2523;51.058;6.922;2023-08-07T07:58:18;13.10;99.90
5009;DHT22;2523;51.058;6.922;2023-08-07T08:00:43;13.20;99.90
5009;DHT22;2523;51.058;6.922;2023-08-07T08:03:09;13.20;99.90
5009;DHT22;2523;51.058;6.922;2023-08-07T08:05:34;13.30;99.90
5009;DHT22;2523;51.058;6.922;2023-08-07T08:08:01;13.30;99.90
5009;DHT22;2523;51.058;6.922;2023-08-07T08:10:27;13.30;99.90
5009;DHT22;2523;51.058;6.922;2023-08-07T08:12:54;13.40;99.90
5009;DHT22;2523;51.058;6.922;2023-08-07T08:15:20;13.30;99.90
5009;DHT22;2523;51.058;6.922;2023-08-07T08:17:46;13.40;99.90
5009;DHT22;2523;51.058;6.922;2023-08-07T08:20:12;13.30;99.90
5009;DHT22;2523;51.058;6.922;2023-08-07T08:22:41;13.40;99.90
5009;DHT22;2523;51.058;6.922;2023-08-07T08:25:06;13.50;99.90
5009;DHT22;2523;51.058;6.922;2023-08-07T08:27:32;13.40;99.90
5009;DHT22;2523;51.058;6.922;2023-08-07T08:29:58;13.50;99.90
5009;DHT22;2523;51.058;6.922;2023-08-07T08:32:23;13.60;99.90
5009;DHT22;2523;51.058;6.922;2023-08-07T08:34:49;13.60;99.90
5009;DHT22;2523;51.058;6.922;2023-08-07T08:37:15;13.60;99.90
5009;DHT22;2523;51.058;6.922;2023-08-07T08:39:41;13.60;99.90
5009;DHT22;2523;51.058;6.922;2023-08-07T08:42:11;13.60;99.90
5009;DHT22;2523;51.058;6.922;2023-08-07T08:44:39;13.60;99.90
5009;DHT22;2523;51.058;6.922;2023-08-07T08:47:06;13.60;99.90
5009;DHT22;2523;51.058;6.922;2023-08-07T08:49:37;13.70;99.90
5009;DHT22;2523;51.058;6.922;2023-08-07T08:52:05;13.80;99.90
5009;DHT22;2523;51.058;6.922;2023-08-07T08:54:32;13.80;99.90
5009;DHT22;2523;51.058;6.922;2023-08-07T08:56:58;13.80;99.90
5009;DHT22;2523;51.058;6.922;2023-08-07T08:59:25;13.90;99.90
5009;DHT22;2523;51.058;6.922;2023-08-07T09:01:51;14.00;99.90
5009;DHT22;2523;51.058;6.922;2023-08-07T09:04:18;14.00;99.90
5009;DHT22;2523;51.058;6.922;2023-08-07T09:06:44;14.00;99.90
5009;DHT22;2523;51.058;6.922;2023-08-07T09:09:12;14.00;99.90
5009;DHT22;2523;51.058;6.922;2023-08-07T09:11:40;14.10;99.90
5009;DHT22;2523;51.058;6.922;2023-08-07T09:14:07;14.10;99.90
5009;DHT22;2523;51.058;6.922;2023-08-07T09:16:35;14.10;99.90
5009;DHT22;2523;51.058;6.922;2023-08-07T09:19:01;14.00;99.90
5009;DHT22;2523;51.058;6.922;2023-08-07T09:21:27;14.00;99.90
5009;DHT22;2523;51.058;6.922;2023-08-07T09:23:53;13.90;99.90
5009;DHT22;2523;51.058;6.922;2023-08-07T09:26:23;13.90;99.90
5009;DHT22;2523;51.058;6.922;2023-08-07T09:28:52;13.90;99.90
5009;DHT22;2523;51.058;6.922;2023-08-07T09:31:22;14.00;99.90
5009;DHT22;2523;51.058;6.922;2023-08-07T09:33:51;14.10;99.90
5009;DHT22;2523;51.058;6.922;2023-08-07T09:36:17;14.30;99.90
5009;DHT22;2523;51.058;6.922;2023-08-07T09:38:44;14.50;99.90
5009;DHT22;2523;51.058;6.922;2023-08-07T09:41:18;14.60;99.90
5009;DHT22;2523;51.058;6.922;2023-08-07T09:43:43;15.00;99.90
5009;DHT22;2523;51.058;6.922;2023-08-07T09:46:09;15.20;99.90
5009;DHT22;2523;51.058;6.922;2023-08-07T09:48:44;15.30;99.90
5009;DHT22;2523;51.058;6.922;2023-08-07T09:51:10;15.30;99.90
5009;DHT22;2523;51.058;6.922;2023-08-07T09:53:36;15.20;99.90
5009;DHT22;2523;51.058;6.922;2023-08-07T09:56:02;15.10;99.90
5009;DHT22;2523;51.058;6.922;2023-08-07T09:58:29;15.00;99.90
5009;DHT22;2523;51.058;6.922;2023-08-07T10:00:55;15.20;99.90
5009;DHT22;2523;51.058;6.922;2023-08-07T10:03:27;15.40;99.90
5009;DHT22;2523;51.058;6.922;2023-08-07T10:05:54;15.70;99.90
5009;DHT22;2523;51.058;6.922;2023-08-07T10:08:21;15.80;99.90
5009;DHT22;2523;51.058;6.922;2023-08-07T10:10:47;15.90;99.90
5009;DHT22;2523;51.058;6.922;2023-08-07T10:13:13;16.00;99.90
5009;DHT22;2523;51.058;6.922;2023-08-07T10:15:40;16.10;99.90
5009;DHT22;2523;51.058;6.922;2023-08-07T10:18:08;16.20;99.90
5009;DHT22;2523;51.058;6.922;2023-08-07T10:20:34;16.60;99.90
5009;DHT22;2523;51.058;6.922;2023-08-07T10:23:07;16.90;99.90
5009;DHT22;2523;51.058;6.922;2023-08-07T10:25:34;17.10;99.90
5009;DHT22;2523;51.058;6.922;2023-08-07T10:28:01;17.00;99.90
5009;DHT22;2523;51.058;6.922;2023-08-07T10:30:29;17.20;99.90
5009;DHT22;2523;51.058;6.922;2023-08-07T10:32:57;17.40;99.90
5009;DHT22;2523;51.058;6.922;2023-08-07T10:35:31;17.60;99.90
5009;DHT22;2523;51.058;6.922;2023-08-07T10:38:14;17.80;99.90
5009;DHT22;2523;51.058;6.922;2023-08-07T10:40:59;18.00;99.90
5009;DHT22;2523;51.058;6.922;2023-08-07T10:43:29;17.90;99.90
5009;DHT22;2523;51.058;6.922;2023-08-07T10:46:20;18.00;99.90
5009;DHT22;2523;51.058;6.922;2023-08-07T10:48:54;18.10;99.90
5009;DHT22;2523;51.058;6.922;2023-08-07T10:51:28;18.10;99.90
5009;DHT22;2523;51.058;6.922;2023-08-07T10:53:55;18.30;99.90
5009;DHT22;2523;51.058;6.922;2023-08-07T10:56:34;18.40;99.90
5009;DHT22;2523;51.058;6.922;2023-08-07T10:59:08;18.30;99.90
5009;DHT22;2523;51.058;6.922;2023-08-07T11:04:14;18.60;99.90
5009;DHT22;2523;51.058;6.922;2023-08-07T11:06:41;18.60;99.90
5009;DHT22;2523;51.058;6.922;2023-08-07T11:09:09;18.30;99.90
5009;DHT22;2523;51.058;6.922;2023-08-07T11:11:43;18.20;99.90
5009;DHT22;2523;51.058;6.922;2023-08-07T11:14:11;18.40;99.90
5009;DHT22;2523;51.058;6.922;2023-08-07T11:16:37;18.90;99.90
5009;DHT22;2523;51.058;6.922;2023-08-07T11:19:03;18.80;99.90
5009;DHT22;2523;51.058;6.922;2023-08-07T11:21:31;18.90;99.90
5009;DHT22;2523;51.058;6.922;2023-08-07T11:23:57;19.20;99.90
5009;DHT22;2523;51.058;6.922;2023-08-07T11:26:22;19.40;99.90
5009;DHT22;2523;51.058;6.922;2023-08-07T11:28:50;19.40;99.90
5009;DHT22;2523;51.058;6.922;2023-08-07T11:31:20;19.50;99.90
5009;DHT22;2523;51.058;6.922;2023-08-07T11:33:46;19.50;99.90
5009;DHT22;2523;51.058;6.922;2023-08-07T11:36:13;19.30;99.90
5009;DHT22;2523;51.058;6.922;2023-08-07T11:38:40;19.20;99.90
5009;DHT22;2523;51.058;6.922;2023-08-07T11:41:14;19.30;99.90
5009;DHT22;2523;51.058;6.922;2023-08-07T11:43:40;19.10;99.90
5009;DHT22;2523;51.058;6.922;2023-08-07T11:46:08;19.20;99.90
5009;DHT22;2523;51.058;6.922;2023-08-07T11:48:36;19.40;99.90
5009;DHT22;2523;51.058;6.922;2023-08-07T11:51:03;19.60;99.90
5009;DHT22;2523;51.058;6.922;2023-08-07T11:53:39;19.80;99.90
5009;DHT22;2523;51.058;6.922;2023-08-07T11:56:13;20.00;99.90
5009;DHT22;2523;51.058;6.922;2023-08-07T11:58:46;20.30;99.90
5009;DHT22;2523;51.058;6.922;2023-08-07T12:01:14;20.40;99.90
5009;DHT22;2523;51.058;6.922;2023-08-07T12:03:54;20.80;99.90
5009;DHT22;2523;51.058;6.922;2023-08-07T12:06:20;20.90;99.90
5009;DHT22;2523;51.058;6.922;2023-08-07T12:08:49;20.90;99.90
5009;DHT22;2523;51.058;6.922;2023-08-07T12:11:16;20.80;99.90
5009;DHT22;2523;51.058;6.922;2023-08-07T12:13:43;20.60;99.90
5009;DHT22;2523;51.058;6.922;2023-08-07T12:16:11;20.70;99.90
5009;DHT22;2523;51.058;6.922;2023-08-07T12:18:50;20.30;99.90
5009;DHT22;2523;51.058;6.922;2023-08-07T12:21:21;20.20;99.90
5009;DHT22;2523;51.058;6.922;2023-08-07T12:23:50;20.00;99.90
5009;DHT22;2523;51.058;6.922;2023-08-07T12:26:17;20.20;99.90
5009;DHT22;2523;51.058;6.922;2023-08-07T12:28:43;20.60;97.40
5009;DHT22;2523;51.058;6.922;2023-08-07T12:31:08;20.90;99.90
5009;DHT22;2523;51.058;6.922;2023-08-07T12:33:34;21.30;73.00
5009;DHT22;2523;51.058;6.922;2023-08-07T12:36:00;21.60;72.20
5009;DHT22;2523;51.058;6.922;2023-08-07T12:38:26;21.60;49.00
5009;DHT22;2523;51.058;6.922;2023-08-07T12:40:52;21.60;42.70
5009;DHT22;2523;51.058;6.922;2023-08-07T12:43:18;21.70;37.90
5009;DHT22;2523;51.058;6.922;2023-08-07T12:45:44;21.70;34.50
5009;DHT22;2523;51.058;6.922;2023-08-07T12:48:09;21.80;32.10
5009;DHT22;2523;51.058;6.922;2023-08-07T12:50:36;21.90;33.30
5009;DHT22;2523;51.058;6.922;2023-08-07T12:53:01;22.20;32.30
5009;DHT22;2523;51.058;6.922;2023-08-07T12:55:27;22.20;32.60
5009;DHT22;2523;51.058;6.922;2023-08-07T12:57:54;22.00;28.40
5009;DHT22;2523;51.058;6.922;2023-08-07T13:00:20;22.20;30.80
5009;DHT22;2523;51.058;6.922;2023-08-07T13:02:48;22.30;40.20
5009;DHT22;2523;51.058;6.922;2023-08-07T13:05:14;22.40;30.20
5009;DHT22;2523;51.058;6.922;2023-08-07T13:07:42;22.70;29.90
5009;DHT22;2523;51.058;6.922;2023-08-07T13:10:11;22.90;29.30
5009;DHT22;2523;51.058;6.922;2023-08-07T13:12:38;22.80;29.10
5009;DHT22;2523;51.058;6.922;2023-08-07T13:15:06;22.60;28.00
5009;DHT22;2523;51.058;6.922;2023-08-07T13:17:32;22.50;26.70
5009;DHT22;2523;51.058;6.922;2023-08-07T13:19:59;22.40;26.90
5009;DHT22;2523;51.058;6.922;2023-08-07T13:22:25;22.40;25.60
5009;DHT22;2523;51.058;6.922;2023-08-07T13:24:51;22.70;26.10
5009;DHT22;2523;51.058;6.922;2023-08-07T13:27:16;22.80;26.10
5009;DHT22;2523;51.058;6.922;2023-08-07T13:29:43;22.50;30.00
5009;DHT22;2523;51.058;6.922;2023-08-07T13:32:09;22.50;28.30
5009;DHT22;2523;51.058;6.922;2023-08-07T13:34:37;22.20;32.60
5009;DHT22;2523;51.058;6.922;2023-08-07T13:37:04;22.20;28.20
5009;DHT22;2523;51.058;6.922;2023-08-07T13:39:30;21.90;26.30
5009;DHT22;2523;51.058;6.922;2023-08-07T13:41:57;21.90;30.70
5009;DHT22;2523;51.058;6.922;2023-08-07T13:44:22;21.70;30.00
5009;DHT22;2523;51.058;6.922;2023-08-07T13:46:48;21.80;27.70
5009;DHT22;2523;51.058;6.922;2023-08-07T13:49:14;21.70;26.60
5009;DHT22;2523;51.058;6.922;2023-08-07T13:51:43;21.80;28.30
5009;DHT22;2523;51.058;6.922;2023-08-07T13:54:08;21.60;27.80
5009;DHT22;2523;51.058;6.922;2023-08-07T13:56:34;21.50;31.60
5009;DHT22;2523;51.058;6.922;2023-08-07T13:59:00;21.70;29.10
5009;DHT22;2523;51.058;6.922;2023-08-07T14:01:26;22.00;29.30
5009;DHT22;2523;51.058;6.922;2023-08-07T14:03:53;22.30;29.80
5009;DHT22;2523;51.058;6.922;2023-08-07T14:06:19;22.30;29.80
5009;DHT22;2523;51.058;6.922;2023-08-07T14:08:45;22.20;28.70
5009;DHT22;2523;51.058;6.922;2023-08-07T14:11:11;21.80;27.80
5009;DHT22;2523;51.058;6.922;2023-08-07T14:13:39;21.60;28.80
5009;DHT22;2523;51.058;6.922;2023-08-07T14:16:04;21.20;29.00
5009;DHT22;2523;51.058;6.922;2023-08-07T14:18:30;20.90;32.50
5009;DHT22;2523;51.058;6.922;2023-08-07T14:20:56;20.50;31.30
5009;DHT22;2523;51.058;6.922;2023-08-07T14:23:21;20.30;42.10
5009;DHT22;2523;51.058;6.922;2023-08-07T14:25:47;20.00;99.90
5009;DHT22;2523;51.058;6.922;2023-08-07T14:28:16;19.80;99.90
5009;DHT22;2523;51.058;6.922;2023-08-07T14:30:42;19.80;99.90
5009;DHT22;2523;51.058;6.922;2023-08-07T14:33:07;19.70;99.90
5009;DHT22;2523;51.058;6.922;2023-08-07T14:35:33;19.70;99.90
5009;DHT22;2523;51.058;6.922;2023-08-07T14:37:58;19.80;99.90
5009;DHT22;2523;51.058;6.922;2023-08-07T14:40:24;19.70;99.90
5009;DHT22;2523;51.058;6.922;2023-08-07T14:42:50;19.70;99.90
5009;DHT22;2523;51.058;6.922;2023-08-07T14:45:15;19.90;99.90
5009;DHT22;2523;51.058;6.922;2023-08-07T14:50:55;20.10;99.90
5009;DHT22;2523;51.058;6.922;2023-08-07T14:53:22;20.20;99.90
5009;DHT22;2523;51.058;6.922;2023-08-07T14:55:48;20.10;99.90
5009;DHT22;2523;51.058;6.922;2023-08-07T14:58:14;20.10;99.90
5009;DHT22;2523;51.058;6.922;2023-08-07T15:00:39;19.90;99.90
5009;DHT22;2523;51.058;6.922;2023-08-07T15:03:05;19.70;99.90
5009;DHT22;2523;51.058;6.922;2023-08-07T15:05:31;19.40;99.90
5009;DHT22;2523;51.058;6.922;2023-08-07T15:07:56;19.30;99.90
5009;DHT22;2523;51.058;6.922;2023-08-07T15:10:22;19.20;99.90
5009;DHT22;2523;51.058;6.922;2023-08-07T15:12:47;19.30;99.90
5009;DHT22;2523;51.058;6.922;2023-08-07T15:15:13;19.30;99.90
5009;DHT22;2523;51.058;6.922;2023-08-07T15:17:39;19.50;99.90
5009;DHT22;2523;51.058;6.922;2023-08-07T15:20:05;19.70;99.90
5009;DHT22;2523;51.058;6.922;2023-08-07T15:25:05;19.70;99.90
5009;DHT22;2523;51.058;6.922;2023-08-07T15:27:30;19.60;99.90
5009;DHT22;2523;51.058;6.922;2023-08-07T15:32:28;19.30;99.90
5009;DHT22;2523;51.058;6.922;2023-08-07T15:34:53;19.40;99.90
5009;DHT22;2523;51.058;6.922;2023-08-07T15:37:19;19.50;99.90
5009;DHT22;2523;51.058;6.922;2023-08-07T15:45:51;19.60;99.90
5009;DHT22;2523;51.058;6.922;2023-08-07T15:48:18;19.70;99.90
5009;DHT22;2523;51.058;6.922;2023-08-07T15:50:44;19.70;99.90
5009;DHT22;2523;51.058;6.922;2023-08-07T15:53:09;19.60;99.90
5009;DHT22;2523;51.058;6.922;2023-08-07T15:55:35;19.40;99.90
5009;DHT22;2523;51.058;6.922;2023-08-07T15:58:05;19.30;99.90
5009;DHT22;2523;51.058;6.922;2023-08-07T16:00:32;19.30;99.90
5009;DHT22;2523;51.058;6.922;2023-08-07T16:03:05;19.20;99.90
5009;DHT22;2523;51.058;6.922;2023-08-07T16:05:35;19.20;99.90
5009;DHT22;2523;51.058;6.922;2023-08-07T16:08:02;19.20;99.90
5009;DHT22;2523;51.058;6.922;2023-08-07T16:10:28;19.10;99.90
5009;DHT22;2523;51.058;6.922;2023-08-07T16:12:54;19.10;99.90
5009;DHT22;2523;51.058;6.922;2023-08-07T16:15:23;19.10;99.90
5009;DHT22;2523;51.058;6.922;2023-08-07T16:17:49;19.10;99.90